Back to top

Lander, WY weather

Hunt Field Airport, Lander, WY: 1/20/2020 04:53
Visibility10 statute milesclear sky
View 7-Day Forecast
Area Summary
Sky/CloudsSky Clear
Weather [last 24 hours]None
Pressure30.35 in.Hg (1028 hPa)
3-hour Pressure Tendency0.005905 in.Hg (0.2 hPa) Steady or increasing, then decreasing; or decreasing then decreasing more rapidly
Dew Point10 °F (-12.2 °C)
Relative Humidity83.9 %
Temperature14 °F (-10 °C)blue thermometer
Wind Chill8.15 °F (-13.3 °C)
Reading TimeMinimum to Maximum Temperature
6-hr ending 1/20@04:538.1 °F to 16 °F (-13.3 °C to -8.9 °C)
6-hr ending 1/19@22:5312 °F to 21.9 °F (-11.1 °C to -5.6 °C)
6-hr ending 1/19@16:5319 °F to 26.1 °F (-7.2 °C to -3.3 °C)
6-hr ending 1/19@10:536.1 °F to 19.9 °F (-14.4 °C to -6.7 °C)
24-hr ending 1/19@23:536.1 °F to 26.1 °F (-14.4 °C to -3.3 °C)
Wind3.45 MPH (3 KT) green arrow pointing 180 degrees
Wind FromSouth (180 Degrees)
Twilight Begins07:07Sunshine Yesterday
Sunrise07:38N/A
Sunset17:15
Twilight Ends17:45
METARKLND 201153Z AUTO 18003KT 10SM CLR M10/M12 A3035 RMK AO2 SLP341 T11001122 11089 21133 58002
Tags: